createdAt,value
2022-11-07T00:00:51.980Z,7.01
2022-11-07T00:08:31.892Z,7.06
2022-11-07T00:16:07.997Z,7.09
2022-11-07T00:23:43.404Z,7.08
2022-11-07T00:31:18.970Z,7.11
2022-11-07T00:38:54.758Z,7.15
2022-11-07T00:46:28.458Z,7.10
2022-11-07T00:54:04.775Z,7.15
2022-11-07T01:01:38.605Z,7.22
2022-11-07T01:09:16.587Z,7.24
2022-11-07T01:16:50.715Z,7.32
2022-11-07T01:24:26.000Z,7.37
2022-11-07T01:31:59.925Z,7.42
2022-11-07T01:39:35.077Z,7.43
2022-11-07T01:47:10.864Z,7.46
2022-11-07T01:54:52.538Z,7.46
2022-11-07T02:02:28.128Z,7.50
2022-11-07T02:10:05.541Z,7.53
2022-11-07T02:17:39.673Z,7.57
2022-11-07T02:25:16.789Z,7.58
2022-11-07T02:32:51.687Z,7.60
2022-11-07T02:40:27.759Z,7.64
2022-11-07T02:48:01.962Z,7.67
2022-11-07T02:55:36.995Z,7.70
2022-11-07T03:03:10.884Z,7.74
2022-11-07T03:10:45.959Z,7.76
2022-11-07T03:18:19.705Z,7.76
2022-11-07T03:25:54.765Z,7.76
2022-11-07T03:33:29.145Z,7.79
2022-11-07T03:41:04.446Z,7.81
2022-11-07T03:48:38.288Z,7.84
2022-11-07T03:56:13.914Z,7.87
2022-11-07T04:03:47.565Z,7.92
2022-11-07T04:11:39.960Z,7.95
2022-11-07T04:19:13.565Z,8.00
2022-11-07T04:27:20.904Z,8.01
2022-11-07T04:34:54.585Z,8.02
2022-11-07T04:42:29.604Z,8.04
2022-11-07T04:50:03.371Z,8.08
2022-11-07T04:57:38.421Z,8.10
2022-11-07T05:05:12.777Z,8.13
2022-11-07T05:12:48.217Z,8.14
2022-11-07T05:20:30.885Z,8.15
2022-11-07T05:28:06.329Z,8.20
2022-11-07T05:35:40.324Z,8.20
2022-11-07T05:43:17.049Z,8.24
2022-11-07T05:50:51.107Z,8.26
2022-11-07T05:58:26.235Z,8.28
2022-11-07T06:06:00.326Z,8.32
2022-11-07T06:13:35.371Z,8.34
2022-11-07T06:21:09.087Z,8.35
2022-11-07T06:28:44.136Z,8.37
2022-11-07T06:36:18.229Z,8.38
2022-11-07T06:43:53.388Z,8.40
2022-11-07T06:51:27.367Z,8.43
2022-11-07T06:59:02.488Z,8.48
2022-11-07T07:06:36.149Z,8.52
2022-11-07T07:14:11.898Z,8.58
2022-11-07T07:21:45.685Z,8.68
2022-11-07T07:29:20.784Z,8.75
2022-11-07T07:36:55.047Z,8.85
2022-11-07T07:44:31.121Z,8.94
2022-11-07T07:52:05.235Z,9.07
2022-11-07T07:59:40.311Z,9.49
2022-11-07T08:07:14.232Z,9.94
2022-11-07T08:14:49.274Z,10.22
2022-11-07T08:22:22.815Z,10.56
2022-11-07T08:29:58.096Z,10.86
2022-11-07T08:37:31.967Z,11.26
2022-11-07T08:45:09.925Z,11.52
2022-11-07T08:52:43.646Z,11.25
2022-11-07T09:00:19.428Z,11.49
2022-11-07T09:07:53.109Z,11.66
2022-11-07T09:15:28.135Z,11.88
2022-11-07T09:23:01.589Z,11.92
2022-11-07T09:30:36.923Z,12.00
2022-11-07T09:38:10.656Z,12.20
2022-11-07T09:45:55.064Z,12.13
2022-11-07T09:53:33.030Z,12.20
2022-11-07T10:01:14.535Z,12.21
2022-11-07T10:08:54.559Z,12.35
2022-11-07T10:16:40.540Z,12.40
2022-11-07T10:24:32.171Z,12.54
2022-11-07T10:32:20.042Z,12.55
2022-11-07T10:39:54.158Z,12.67
2022-11-07T10:47:29.532Z,12.77
2022-11-07T10:55:08.759Z,12.86
2022-11-07T11:02:48.310Z,12.90
2022-11-07T11:10:24.471Z,13.01
2022-11-07T11:18:02.771Z,13.16
2022-11-07T11:25:47.239Z,13.24
2022-11-07T11:33:27.041Z,13.25
2022-11-07T11:41:10.948Z,13.35
2022-11-07T11:48:51.880Z,13.57
2022-11-07T11:56:40.220Z,13.69
2022-11-07T12:04:31.488Z,13.76
2022-11-07T12:12:18.708Z,13.76
2022-11-07T12:19:59.870Z,13.80
2022-11-07T12:27:43.906Z,13.79
2022-11-07T12:35:29.280Z,13.82
2022-11-07T12:43:12.702Z,13.76
2022-11-07T12:50:55.837Z,13.76
2022-11-07T12:58:32.434Z,13.77
2022-11-07T13:06:15.591Z,13.74
2022-11-07T13:14:21.117Z,13.67
2022-11-07T13:22:05.382Z,13.64
2022-11-07T13:29:41.296Z,13.57
2022-11-07T13:37:21.585Z,13.51
2022-11-07T13:44:59.221Z,13.50
2022-11-07T13:52:41.734Z,13.48
2022-11-07T14:00:19.564Z,13.48
2022-11-07T14:07:58.988Z,13.41
2022-11-07T14:15:32.820Z,13.41
2022-11-07T14:23:14.353Z,13.39
2022-11-07T14:30:51.842Z,13.39
2022-11-07T14:38:26.961Z,13.36
2022-11-07T14:46:13.187Z,13.36
2022-11-07T14:53:56.752Z,13.30
2022-11-07T15:01:32.124Z,13.30
2022-11-07T15:09:08.980Z,13.28
2022-11-07T15:16:49.442Z,13.24
2022-11-07T15:24:34.992Z,13.21
2022-11-07T15:32:15.301Z,13.17
2022-11-07T15:39:51.204Z,13.13
2022-11-07T15:47:24.838Z,13.10
2022-11-07T15:55:00.188Z,13.07
2022-11-07T16:02:34.085Z,13.04
2022-11-07T16:10:21.526Z,12.99
2022-11-07T16:17:55.206Z,12.92
2022-11-07T16:25:31.921Z,12.90
2022-11-07T16:33:05.953Z,12.77
2022-11-07T16:40:42.057Z,12.67
2022-11-07T16:48:24.889Z,12.60
2022-11-07T16:56:04.157Z,12.54
2022-11-07T17:03:37.939Z,12.51
2022-11-07T17:11:14.663Z,12.55
2022-11-07T17:18:49.386Z,12.51
2022-11-07T17:26:28.068Z,12.44
2022-11-07T17:34:01.758Z,12.40
2022-11-07T17:41:36.833Z,12.39
2022-11-07T17:49:12.027Z,12.35
2022-11-07T17:56:47.107Z,12.36
2022-11-07T18:04:20.655Z,12.34
2022-11-07T18:11:55.762Z,12.33
2022-11-07T18:19:29.711Z,12.32
2022-11-07T18:27:10.129Z,12.30
2022-11-07T18:34:44.210Z,12.26
2022-11-07T18:42:19.286Z,12.22
2022-11-07T18:49:57.156Z,12.19
2022-11-07T18:57:32.870Z,12.15
2022-11-07T19:05:07.669Z,12.11
2022-11-07T19:12:44.501Z,12.08
2022-11-07T19:20:20.205Z,12.04
2022-11-07T19:27:55.290Z,12.01
2022-11-07T19:35:29.604Z,12.02
2022-11-07T19:43:05.461Z,11.98
2022-11-07T19:50:39.400Z,11.96
2022-11-07T19:58:15.976Z,11.93
2022-11-07T20:05:51.207Z,11.92
2022-11-07T20:13:26.601Z,11.91
2022-11-07T20:21:05.401Z,11.89
2022-11-07T20:28:40.938Z,11.88
2022-11-07T20:36:16.767Z,11.87
2022-11-07T20:43:55.434Z,11.84
2022-11-07T20:51:29.783Z,11.82
2022-11-07T20:59:04.832Z,11.81
2022-11-07T21:06:38.368Z,11.75
2022-11-07T21:14:13.859Z,11.70
2022-11-07T21:21:49.414Z,11.65
2022-11-07T21:29:29.265Z,11.64
2022-11-07T21:37:03.717Z,11.63
2022-11-07T21:44:38.742Z,11.60
2022-11-07T21:52:12.426Z,11.58
2022-11-07T21:59:47.385Z,11.53
2022-11-07T22:07:20.999Z,11.47
2022-11-07T22:14:57.211Z,11.44
2022-11-07T22:22:30.960Z,11.36
2022-11-07T22:30:07.223Z,11.34
2022-11-07T22:37:40.877Z,11.27
2022-11-07T22:45:15.994Z,11.24
2022-11-07T22:52:49.678Z,11.20
2022-11-07T23:00:24.614Z,11.16
2022-11-07T23:07:58.557Z,11.12
2022-11-07T23:15:34.283Z,11.07
2022-11-07T23:23:07.868Z,11.04
2022-11-07T23:30:42.972Z,11.01
2022-11-07T23:38:16.867Z,10.99
2022-11-07T23:46:09.642Z,10.95
2022-11-07T23:54:01.297Z,10.93
